createdAt,value
2023-04-13T00:01:12.399Z,30.30
2023-04-13T00:03:42.786Z,30.30
2023-04-13T00:06:12.124Z,30.30
2023-04-13T00:08:43.852Z,30.30
2023-04-13T00:11:14.537Z,30.30
2023-04-13T00:13:43.933Z,30.40
2023-04-13T00:16:14.784Z,30.40
2023-04-13T00:18:44.271Z,30.40
2023-04-13T00:21:13.654Z,30.40
2023-04-13T00:23:42.949Z,30.50
2023-04-13T00:26:12.213Z,30.40
2023-04-13T00:28:42.058Z,30.50
2023-04-13T00:31:11.852Z,30.50
2023-04-13T00:33:42.529Z,30.50
2023-04-13T00:36:11.920Z,30.60
2023-04-13T00:38:45.924Z,30.60
2023-04-13T00:41:15.289Z,30.60
2023-04-13T00:43:45.894Z,30.60
2023-04-13T00:46:17.321Z,30.70
2023-04-13T00:48:49.358Z,30.70
2023-04-13T00:51:19.965Z,30.70
2023-04-13T00:53:50.632Z,30.80
2023-04-13T00:56:23.923Z,30.80
2023-04-13T00:58:53.379Z,30.80
2023-04-13T01:01:22.721Z,30.90
2023-04-13T01:03:54.532Z,30.90
2023-04-13T01:06:42.916Z,31.00
2023-04-13T01:09:20.369Z,31.00
2023-04-13T01:12:20.170Z,31.10
2023-04-13T01:15:14.387Z,31.10
2023-04-13T01:17:53.233Z,31.20
2023-04-13T01:20:23.877Z,31.20
2023-04-13T01:23:10.279Z,31.30
2023-04-13T01:26:08.067Z,31.30
2023-04-13T01:28:39.948Z,31.40
2023-04-13T01:31:12.662Z,31.40
2023-04-13T01:33:43.189Z,31.50
2023-04-13T01:36:14.084Z,31.50
2023-04-13T01:38:43.338Z,31.60
2023-04-13T01:41:16.530Z,31.70
2023-04-13T01:43:46.372Z,31.70
2023-04-13T01:46:16.249Z,31.80
2023-04-13T01:48:57.658Z,31.80
2023-04-13T01:51:35.326Z,31.90
2023-04-13T01:54:17.244Z,31.90
2023-04-13T01:56:46.888Z,32.00
2023-04-13T01:59:20.333Z,32.10
2023-04-13T02:01:49.896Z,32.10
2023-04-13T02:04:19.499Z,32.20
2023-04-13T02:06:49.325Z,32.30
2023-04-13T02:09:18.975Z,32.30
2023-04-13T02:11:49.027Z,32.40
2023-04-13T02:14:18.207Z,32.50
2023-04-13T02:16:47.593Z,32.50
2023-04-13T02:19:16.938Z,32.60
2023-04-13T02:21:47.104Z,32.60
2023-04-13T02:24:16.345Z,32.70
2023-04-13T02:26:45.513Z,32.70
2023-04-13T02:29:14.649Z,32.80
2023-04-13T02:31:46.280Z,32.90
2023-04-13T02:34:15.568Z,32.90
2023-04-13T02:36:46.041Z,33.00
2023-04-13T02:39:15.357Z,33.00
2023-04-13T02:41:44.850Z,33.10
2023-04-13T02:44:14.020Z,33.20
2023-04-13T02:46:43.216Z,33.20
2023-04-13T02:49:12.634Z,33.30
2023-04-13T02:51:47.462Z,33.30
2023-04-13T02:54:19.722Z,33.40
2023-04-13T02:56:51.706Z,33.50
2023-04-13T02:59:21.250Z,33.60
2023-04-13T03:01:51.205Z,33.70
2023-04-13T03:04:23.482Z,33.80
2023-04-13T03:06:56.217Z,33.80
2023-04-13T03:09:29.321Z,33.90
2023-04-13T03:11:58.837Z,33.90
2023-04-13T03:14:30.878Z,34.00
2023-04-13T03:17:00.885Z,34.00
2023-04-13T03:19:31.116Z,34.10
2023-04-13T03:22:06.364Z,34.20
2023-04-13T03:24:58.977Z,34.20
2023-04-13T03:27:36.064Z,34.30
2023-04-13T03:30:12.892Z,34.40
2023-04-13T03:32:45.062Z,34.50
2023-04-13T03:35:14.376Z,34.60
2023-04-13T03:37:51.638Z,34.70
2023-04-13T03:40:21.936Z,34.70
2023-04-13T03:42:53.864Z,34.80
2023-04-13T03:48:10.703Z,34.90
2023-04-13T03:50:44.546Z,35.00
2023-04-13T03:53:19.735Z,35.10
2023-04-13T03:55:51.976Z,35.20
2023-04-13T03:58:24.367Z,35.30
2023-04-13T04:00:57.022Z,35.40
2023-04-13T04:03:32.071Z,35.40
2023-04-13T04:06:04.551Z,35.50
2023-04-13T04:08:34.568Z,35.60
2023-04-13T04:11:07.858Z,35.70
2023-04-13T04:13:39.866Z,35.70
2023-04-13T04:16:12.845Z,35.80
2023-04-13T04:18:49.478Z,35.80
2023-04-13T04:21:22.616Z,35.90
2023-04-13T04:23:53.172Z,36.00
2023-04-13T04:26:26.586Z,36.10
2023-04-13T04:29:02.886Z,36.30
2023-04-13T04:31:37.630Z,36.40
2023-04-13T04:34:06.861Z,36.50
2023-04-13T04:36:37.314Z,36.60
2023-04-13T04:39:07.247Z,36.70
2023-04-13T04:41:38.411Z,36.70
2023-04-13T04:44:08.711Z,36.70
2023-04-13T04:46:39.522Z,36.70
2023-04-13T04:49:08.776Z,36.80
2023-04-13T04:51:38.863Z,36.80
2023-04-13T04:54:09.099Z,36.90
2023-04-13T04:56:38.383Z,36.90
2023-04-13T04:59:07.643Z,37.00
2023-04-13T05:01:37.157Z,37.10
2023-04-13T05:04:07.364Z,37.20
2023-04-13T05:06:36.762Z,37.30
2023-04-13T05:09:06.940Z,37.50
2023-04-13T05:11:36.177Z,37.60
2023-04-13T05:14:05.434Z,37.60
2023-04-13T05:16:35.096Z,37.70
2023-04-13T05:19:06.323Z,37.80
2023-04-13T05:21:35.897Z,37.90
2023-04-13T05:24:05.495Z,38.00
2023-04-13T05:26:35.247Z,38.00
2023-04-13T05:29:06.272Z,38.00
2023-04-13T05:31:35.590Z,38.20
2023-04-13T05:34:04.885Z,38.20
2023-04-13T05:36:34.470Z,38.30
2023-04-13T05:39:04.110Z,38.40
2023-04-13T05:41:34.760Z,38.50
2023-04-13T05:44:04.009Z,38.50
2023-04-13T05:46:33.291Z,38.60
2023-04-13T05:49:02.777Z,38.60
2023-04-13T05:51:33.800Z,38.70
2023-04-13T05:54:04.143Z,38.80
2023-04-13T05:56:35.248Z,38.90
2023-04-13T05:59:05.372Z,38.90
2023-04-13T06:01:35.935Z,38.90
2023-04-13T06:04:07.102Z,38.90
2023-04-13T06:06:37.032Z,39.00
2023-04-13T06:09:06.907Z,39.00
2023-04-13T06:11:36.600Z,39.00
2023-04-13T06:14:05.949Z,39.10
2023-04-13T06:16:35.309Z,39.10
2023-04-13T06:19:04.702Z,39.20
2023-04-13T06:21:34.514Z,39.40
2023-04-13T06:24:03.764Z,39.50
2023-04-13T06:26:34.302Z,39.50
2023-04-13T06:29:04.175Z,39.60
2023-04-13T06:31:33.828Z,39.70
2023-04-13T06:34:03.463Z,39.70
2023-04-13T06:36:33.768Z,39.80
2023-04-13T06:39:03.244Z,39.80
2023-04-13T06:41:33.175Z,39.80
2023-04-13T06:44:02.409Z,39.80
2023-04-13T06:46:31.991Z,39.70
2023-04-13T06:49:01.790Z,39.70
2023-04-13T06:51:31.218Z,39.70
2023-04-13T06:54:00.920Z,39.80
2023-04-13T06:56:30.232Z,39.90
2023-04-13T06:59:02.909Z,40.00
2023-04-13T07:01:33.309Z,40.00
2023-04-13T07:04:03.731Z,40.00
2023-04-13T07:06:33.343Z,40.00
2023-04-13T07:09:03.962Z,40.00
2023-04-13T07:11:33.378Z,40.00
2023-04-13T07:14:02.915Z,40.00
2023-04-13T07:16:32.392Z,40.00
2023-04-13T07:19:02.698Z,40.00
2023-04-13T07:21:34.125Z,40.10
2023-04-13T07:24:03.440Z,40.10
2023-04-13T07:26:32.724Z,40.10
2023-04-13T07:29:02.251Z,40.10
2023-04-13T07:31:31.777Z,40.20
2023-04-13T07:34:01.022Z,40.20
2023-04-13T07:36:30.312Z,40.20
2023-04-13T07:38:59.827Z,40.30
2023-04-13T07:41:29.514Z,40.30
2023-04-13T07:43:58.763Z,40.40
2023-04-13T07:46:28.404Z,40.40
2023-04-13T07:48:58.468Z,40.40
2023-04-13T07:51:27.866Z,40.50
2023-04-13T07:53:57.384Z,40.50
2023-04-13T07:56:27.252Z,40.50
2023-04-13T07:58:56.598Z,40.50
2023-04-13T08:01:26.676Z,40.50
2023-04-13T08:03:56.507Z,40.50
2023-04-13T08:06:25.984Z,40.40
2023-04-13T08:08:55.747Z,40.40
2023-04-13T08:11:25.015Z,40.40
2023-04-13T08:13:54.261Z,40.30
2023-04-13T08:16:23.614Z,40.20
2023-04-13T08:18:52.912Z,40.20
2023-04-13T08:21:22.181Z,40.20
2023-04-13T08:23:51.471Z,40.20
2023-04-13T08:26:23.156Z,40.20
2023-04-13T08:28:56.161Z,40.20
2023-04-13T08:31:25.476Z,40.20
2023-04-13T08:33:56.582Z,40.20
2023-04-13T08:36:28.499Z,40.20
2023-04-13T08:38:57.952Z,40.20
2023-04-13T08:41:29.246Z,40.20
2023-04-13T08:43:59.012Z,40.10
2023-04-13T08:46:28.970Z,40.10
2023-04-13T08:49:01.323Z,40.10
2023-04-13T08:51:35.463Z,40.10
2023-04-13T08:54:04.775Z,40.10
2023-04-13T08:56:45.316Z,40.10
2023-04-13T08:59:18.327Z,40.10
2023-04-13T09:01:50.017Z,40.10
2023-04-13T09:04:24.944Z,40.10
2023-04-13T09:06:54.606Z,40.10
2023-04-13T09:09:25.503Z,40.10
2023-04-13T09:11:54.790Z,40.10
2023-04-13T09:14:24.956Z,40.10
2023-04-13T09:16:54.601Z,40.20
2023-04-13T09:19:34.551Z,40.20
2023-04-13T09:22:15.436Z,40.20
2023-04-13T09:24:44.955Z,40.20
2023-04-13T09:27:24.866Z,40.10
2023-04-13T09:29:57.978Z,40.10
2023-04-13T09:32:29.320Z,40.20
2023-04-13T09:35:09.324Z,40.20
2023-04-13T09:37:45.260Z,40.10
2023-04-13T09:40:17.504Z,40.10
2023-04-13T09:43:03.909Z,40.10
2023-04-13T09:45:42.307Z,39.90
2023-04-13T09:48:23.472Z,39.80
2023-04-13T09:51:03.872Z,39.60
2023-04-13T09:53:54.434Z,39.50
2023-04-13T09:56:25.659Z,39.30
2023-04-13T09:58:55.302Z,39.20
2023-04-13T10:01:26.261Z,39.10
2023-04-13T10:03:56.376Z,39.10
2023-04-13T10:06:25.890Z,39.00
2023-04-13T10:08:55.122Z,39.00
2023-04-13T10:11:25.432Z,38.90
2023-04-13T10:14:03.763Z,38.90
2023-04-13T10:16:51.204Z,38.80
2023-04-13T10:19:25.043Z,38.70
2023-04-13T10:21:56.080Z,38.60
2023-04-13T10:24:26.568Z,38.60
2023-04-13T10:26:59.578Z,38.50
2023-04-13T10:29:33.844Z,38.50
2023-04-13T10:32:06.236Z,38.40
2023-04-13T10:34:39.213Z,38.30
2023-04-13T10:37:30.295Z,38.30
2023-04-13T10:40:11.281Z,38.20
2023-04-13T10:42:52.534Z,38.10
2023-04-13T10:45:35.801Z,38.00
2023-04-13T10:48:05.627Z,38.00
2023-04-13T10:50:34.937Z,37.80
2023-04-13T10:53:06.240Z,37.80
2023-04-13T10:55:37.003Z,37.60
2023-04-13T10:58:20.208Z,37.50
2023-04-13T11:00:51.032Z,37.40
2023-04-13T11:03:20.870Z,37.30
2023-04-13T11:06:00.361Z,37.20
2023-04-13T11:08:29.783Z,37.10
2023-04-13T11:10:59.744Z,37.00
2023-04-13T11:13:32.132Z,37.00
2023-04-13T11:16:06.289Z,36.90
2023-04-13T11:18:35.698Z,36.80
2023-04-13T11:21:08.610Z,36.70
2023-04-13T11:44:58.167Z,36.30
2023-04-13T11:47:28.208Z,35.90
2023-04-13T11:49:57.717Z,35.90
2023-04-13T11:52:28.034Z,35.80
2023-04-13T11:55:00.660Z,35.70
2023-04-13T11:57:37.709Z,35.70
2023-04-13T12:00:17.131Z,35.70
2023-04-13T12:03:01.045Z,35.70
2023-04-13T12:05:34.749Z,35.60
2023-04-13T12:08:04.984Z,35.50
2023-04-13T12:10:46.713Z,35.50
2023-04-13T12:13:35.991Z,35.50
2023-04-13T12:16:09.583Z,35.40
2023-04-13T12:18:47.783Z,35.30
2023-04-13T12:21:20.970Z,35.30
2023-04-13T12:23:59.940Z,35.20
2023-04-13T12:27:10.070Z,35.10
2023-04-13T12:29:28.131Z,35.10
2023-04-13T12:32:04.836Z,35.00
2023-04-13T12:34:34.508Z,34.90
2023-04-13T12:37:03.716Z,34.90
2023-04-13T12:39:33.020Z,34.80
2023-04-13T12:42:02.326Z,34.70
2023-04-13T12:44:33.782Z,34.70
2023-04-13T12:47:03.970Z,34.70
2023-04-13T12:49:33.308Z,34.60
2023-04-13T12:52:02.626Z,34.60
2023-04-13T12:54:31.851Z,34.50
2023-04-13T12:57:01.375Z,34.50
2023-04-13T12:59:30.750Z,34.50
2023-04-13T13:02:00.066Z,34.50
2023-04-13T13:04:31.615Z,34.50
2023-04-13T13:07:01.459Z,34.40
2023-04-13T13:09:30.702Z,34.40
2023-04-13T13:12:00.059Z,34.40
2023-04-13T13:14:29.695Z,34.30
2023-04-13T13:16:59.039Z,34.30
2023-04-13T13:19:28.504Z,34.30
2023-04-13T13:21:57.956Z,34.30
2023-04-13T13:24:27.361Z,34.20
2023-04-13T13:29:31.832Z,34.20
2023-04-13T13:32:02.303Z,34.20
2023-04-13T13:34:31.695Z,34.20
2023-04-13T13:37:00.916Z,34.20
2023-04-13T13:39:30.205Z,34.20
2023-04-13T13:42:00.006Z,34.20
2023-04-13T13:44:29.723Z,34.20
2023-04-13T13:46:58.929Z,34.10
2023-04-13T13:49:29.286Z,34.10
2023-04-13T13:51:58.558Z,34.10
2023-04-13T13:54:28.093Z,34.10
2023-04-13T13:56:57.364Z,34.00
2023-04-13T13:59:26.728Z,34.00
2023-04-13T14:01:56.146Z,34.00
2023-04-13T14:04:25.631Z,34.00
2023-04-13T14:06:54.972Z,34.00
2023-04-13T14:09:24.481Z,33.90
2023-04-13T14:11:53.828Z,33.90
2023-04-13T14:14:23.078Z,33.90
2023-04-13T14:16:52.360Z,33.80
2023-04-13T14:19:22.992Z,33.80
2023-04-13T14:21:57.427Z,33.80
2023-04-13T14:24:27.112Z,33.80
2023-04-13T14:26:56.420Z,33.80
2023-04-13T14:29:25.649Z,33.80
2023-04-13T14:31:55.031Z,33.70
2023-04-13T14:34:24.276Z,33.70
2023-04-13T14:36:54.441Z,33.70
2023-04-13T14:39:26.838Z,33.70
2023-04-13T14:41:56.673Z,33.70
2023-04-13T14:44:26.504Z,33.70
2023-04-13T14:46:56.151Z,33.60
2023-04-13T14:49:25.581Z,33.60
2023-04-13T14:51:54.816Z,33.60
2023-04-13T14:54:24.135Z,33.60
2023-04-13T14:56:53.392Z,33.60
2023-04-13T14:59:22.912Z,33.60
2023-04-13T15:01:52.400Z,33.50
2023-04-13T15:04:21.846Z,33.50
2023-04-13T15:06:55.057Z,33.50
2023-04-13T15:09:24.389Z,33.50
2023-04-13T15:11:53.594Z,33.50
2023-04-13T15:14:23.522Z,33.40
2023-04-13T15:16:52.928Z,33.40
2023-04-13T15:19:22.207Z,33.40
2023-04-13T15:21:51.665Z,33.30
2023-04-13T15:24:20.892Z,33.30
2023-04-13T15:26:51.701Z,33.30
2023-04-13T15:29:21.438Z,33.30
2023-04-13T15:31:50.809Z,33.30
2023-04-13T15:34:20.171Z,33.30
2023-04-13T15:36:49.974Z,33.30
2023-04-13T15:39:19.197Z,33.30
2023-04-13T15:41:48.546Z,33.20
2023-04-13T15:44:18.234Z,33.20
2023-04-13T15:46:48.964Z,33.20
2023-04-13T15:49:18.162Z,33.20
2023-04-13T15:51:47.810Z,33.10
2023-04-13T15:54:17.126Z,33.10
2023-04-13T15:56:46.964Z,33.10
2023-04-13T15:59:16.263Z,33.00
2023-04-13T16:01:50.777Z,33.00
2023-04-13T16:04:20.182Z,33.00
2023-04-13T16:07:05.008Z,32.90
2023-04-13T16:09:40.145Z,32.90
2023-04-13T16:12:11.800Z,32.80
2023-04-13T16:14:46.393Z,32.80
2023-04-13T16:17:16.489Z,32.80
2023-04-13T16:19:47.628Z,32.70
2023-04-13T16:22:16.863Z,32.70
2023-04-13T16:24:46.125Z,32.70
2023-04-13T16:27:16.481Z,32.70
2023-04-13T16:29:46.227Z,32.60
2023-04-13T16:32:15.565Z,32.50
2023-04-13T16:34:44.816Z,32.50
2023-04-13T16:37:14.046Z,32.50
2023-04-13T16:39:45.320Z,32.50
2023-04-13T16:42:17.775Z,32.40
2023-04-13T16:44:47.096Z,32.40
2023-04-13T16:47:16.310Z,32.40
2023-04-13T16:49:45.544Z,32.30
2023-04-13T16:52:14.752Z,32.30
2023-04-13T16:54:47.285Z,32.30
2023-04-13T16:57:16.468Z,32.30
2023-04-13T16:59:46.560Z,32.20
2023-04-13T17:02:28.332Z,32.30
2023-04-13T17:05:00.157Z,32.20
2023-04-13T17:07:29.505Z,32.20
2023-04-13T17:09:58.713Z,32.20
2023-04-13T17:12:28.536Z,32.20
2023-04-13T17:14:58.435Z,32.20
2023-04-13T17:17:28.016Z,32.10
2023-04-13T17:19:57.367Z,32.10
2023-04-13T17:22:26.677Z,32.10
2023-04-13T17:24:56.471Z,32.10
2023-04-13T17:27:25.707Z,32.10
2023-04-13T17:29:54.939Z,32.10
2023-04-13T17:32:24.283Z,32.00
2023-04-13T17:34:53.492Z,32.00
2023-04-13T17:37:23.390Z,32.00
2023-04-13T17:39:52.675Z,32.00
2023-04-13T17:42:21.905Z,32.00
2023-04-13T17:44:51.240Z,32.00
2023-04-13T17:47:20.383Z,31.90
2023-04-13T17:49:49.540Z,31.90
2023-04-13T17:52:18.778Z,31.90
2023-04-13T17:54:48.003Z,31.90
2023-04-13T17:57:17.209Z,31.90
2023-04-13T17:59:49.660Z,31.90
2023-04-13T18:02:19.436Z,31.90
2023-04-13T18:04:49.363Z,31.90
2023-04-13T18:07:18.649Z,31.80
2023-04-13T18:09:47.819Z,31.80
2023-04-13T18:12:17.506Z,31.80
2023-04-13T18:14:46.864Z,31.80
2023-04-13T18:17:16.249Z,31.80
2023-04-13T18:19:45.479Z,31.70
2023-04-13T18:22:15.238Z,31.80
2023-04-13T18:24:44.520Z,31.80
2023-04-13T18:27:14.256Z,31.80
2023-04-13T18:29:43.423Z,31.70
2023-04-13T18:32:12.676Z,31.70
2023-04-13T18:34:43.261Z,31.70
2023-04-13T18:37:12.818Z,31.70
2023-04-13T18:39:42.346Z,31.70
2023-04-13T18:42:11.765Z,31.70
2023-04-13T18:44:41.539Z,31.70
2023-04-13T18:47:10.738Z,31.70
2023-04-13T18:49:39.912Z,31.70
2023-04-13T18:52:09.134Z,31.70
2023-04-13T18:54:38.360Z,31.70
2023-04-13T18:57:08.740Z,31.70
2023-04-13T18:59:38.054Z,31.70
2023-04-13T19:02:07.467Z,31.70
2023-04-13T19:04:39.137Z,31.70
2023-04-13T19:07:09.698Z,31.70
2023-04-13T19:09:39.817Z,31.60
2023-04-13T19:12:09.774Z,31.60
2023-04-13T19:14:38.991Z,31.60
2023-04-13T19:17:08.266Z,31.60
2023-04-13T19:19:37.890Z,31.50
2023-04-13T19:22:07.153Z,31.50
2023-04-13T19:24:36.374Z,31.50
2023-04-13T19:27:05.628Z,31.50
2023-04-13T19:29:35.714Z,31.50
2023-04-13T19:32:05.187Z,31.50
2023-04-13T19:34:34.862Z,31.50
2023-04-13T19:37:04.393Z,31.50
2023-04-13T19:39:34.622Z,31.50
2023-04-13T19:42:03.808Z,31.40
2023-04-13T19:44:33.374Z,31.40
2023-04-13T19:47:04.321Z,31.40
2023-04-13T19:49:34.292Z,31.40
2023-04-13T19:52:04.923Z,31.30
2023-04-13T19:54:34.200Z,31.30
2023-04-13T19:57:03.531Z,31.30
2023-04-13T19:59:32.868Z,31.30
2023-04-13T20:02:02.241Z,31.30
2023-04-13T20:04:32.264Z,31.30
2023-04-13T20:07:02.326Z,31.20
2023-04-13T20:09:31.952Z,31.30
2023-04-13T20:12:01.801Z,31.20
2023-04-13T20:14:31.006Z,31.20
2023-04-13T20:17:00.266Z,31.20
2023-04-13T20:19:29.578Z,31.20
2023-04-13T20:22:03.959Z,31.20
2023-04-13T20:24:33.397Z,31.20
2023-04-13T20:27:02.593Z,31.20
2023-04-13T20:29:32.235Z,31.20
2023-04-13T20:32:02.425Z,31.20
2023-04-13T20:34:31.886Z,31.10
2023-04-13T20:37:01.109Z,31.10
2023-04-13T20:39:31.609Z,31.10
2023-04-13T20:42:05.665Z,31.10
2023-04-13T20:44:38.911Z,31.00
2023-04-13T20:47:15.832Z,31.00
2023-04-13T20:49:47.812Z,31.00
2023-04-13T20:52:19.064Z,30.90
2023-04-13T20:54:48.441Z,30.90
2023-04-13T20:57:18.606Z,30.90
2023-04-13T20:59:49.080Z,30.80
2023-04-13T21:02:18.589Z,30.90
2023-04-13T21:04:48.635Z,30.80
2023-04-13T21:07:17.919Z,30.80
2023-04-13T21:09:47.280Z,30.80
2023-04-13T21:12:17.982Z,30.80
2023-04-13T21:14:47.231Z,30.80
2023-04-13T21:17:16.542Z,30.80
2023-04-13T21:19:45.985Z,30.70
2023-04-13T21:22:16.848Z,30.70
2023-04-13T21:24:46.644Z,30.70
2023-04-13T21:27:16.079Z,30.70
2023-04-13T21:29:45.548Z,30.70
2023-04-13T21:32:14.896Z,30.70
2023-04-13T21:34:44.389Z,30.60
2023-04-13T21:37:13.775Z,30.60
2023-04-13T21:39:43.111Z,30.60
2023-04-13T21:42:12.453Z,30.60
2023-04-13T21:44:41.912Z,30.60
2023-04-13T21:47:11.169Z,30.60
2023-04-13T21:49:40.521Z,30.60
2023-04-13T21:52:10.251Z,30.60
2023-04-13T21:54:39.580Z,30.60
2023-04-13T21:57:10.768Z,30.50
2023-04-13T21:59:40.183Z,30.50
2023-04-13T22:02:09.771Z,30.60
2023-04-13T22:04:39.268Z,30.50
2023-04-13T22:07:08.592Z,30.60
2023-04-13T22:09:37.860Z,30.60
2023-04-13T22:12:07.362Z,30.60
2023-04-13T22:14:36.634Z,30.60
2023-04-13T22:17:05.984Z,30.60
2023-04-13T22:19:35.345Z,30.60
2023-04-13T22:22:04.697Z,30.60
2023-04-13T22:24:37.023Z,30.60
2023-04-13T22:27:07.011Z,30.50
2023-04-13T22:29:36.302Z,30.50
2023-04-13T22:32:05.593Z,30.50
2023-04-13T22:34:35.734Z,30.50
2023-04-13T22:37:05.993Z,30.50
2023-04-13T22:39:35.791Z,30.50
2023-04-13T22:42:05.160Z,30.50
2023-04-13T22:44:35.988Z,30.50
2023-04-13T22:47:05.525Z,30.50
2023-04-13T22:49:35.004Z,30.50
2023-04-13T22:52:04.433Z,30.50
2023-04-13T22:54:33.911Z,30.40
2023-04-13T22:57:05.141Z,30.40
2023-04-13T22:59:34.805Z,30.40
2023-04-13T23:02:04.852Z,30.50
2023-04-13T23:04:34.431Z,30.50
2023-04-13T23:07:03.864Z,30.50
2023-04-13T23:09:33.213Z,30.50
2023-04-13T23:12:02.738Z,30.40
2023-04-13T23:14:32.039Z,30.40
2023-04-13T23:17:01.499Z,30.40
2023-04-13T23:19:30.830Z,30.40
2023-04-13T23:22:00.248Z,30.40
2023-04-13T23:24:32.747Z,30.40
2023-04-13T23:27:02.058Z,30.40
2023-04-13T23:29:31.403Z,30.40
2023-04-13T23:32:00.937Z,30.40
2023-04-13T23:34:30.356Z,30.40
2023-04-13T23:36:59.611Z,30.40
2023-04-13T23:39:28.851Z,30.30
2023-04-13T23:41:58.129Z,30.30
2023-04-13T23:44:28.273Z,30.30
2023-04-13T23:46:58.095Z,30.30
2023-04-13T23:49:27.458Z,30.30
2023-04-13T23:51:57.173Z,30.30
2023-04-13T23:54:26.703Z,30.30
2023-04-13T23:56:56.041Z,30.30
2023-04-13T23:59:25.536Z,30.30
